Time;durP1;ratioP1;P1;durP2;ratioP2;P2;SDS_P1;SDS_P2;PMS_P1;PMS_P2;Temp;Humidity;BMP_temperature;BMP_pressure;BME280_temperature;BME280_humidity;BME280_pressure;Samples;Min_cycle;Max_cycle;Signal;HPM_P1;HPM_P2
2021/08/30 00:02:12;;;;;;;14.02;6.70;;;;;;;18.15;100.00;101124.91;4972863;28;20038;-68
2021/08/30 00:04:38;;;;;;;12.98;6.07;;;;;;;18.15;100.00;101119.44;4958723;28;20510;-68
2021/08/30 00:07:03;;;;;;;12.75;6.05;;;;;;;18.11;100.00;101121.41;4973819;28;20047;-68
2021/08/30 00:09:29;;;;;;;13.00;6.43;;;;;;;18.11;100.00;101120.63;4974161;28;20039;-68
2021/08/30 00:11:54;;;;;;;14.23;6.47;;;;;;;18.11;100.00;101121.41;4964915;28;20046;-68
2021/08/30 00:14:20;;;;;;;14.30;5.82;;;;;;;18.06;100.00;101118.31;4972650;28;20031;-68
2021/08/30 00:16:45;;;;;;;14.75;5.95;;;;;;;18.04;100.00;101118.69;4973613;28;20042;-68
2021/08/30 00:19:11;;;;;;;16.67;7.40;;;;;;;18.07;100.00;101114.41;4973638;28;20086;-68
2021/08/30 00:21:36;;;;;;;13.27;6.20;;;;;;;17.96;100.00;101111.72;4970027;28;20502;-68
2021/08/30 00:24:02;;;;;;;10.48;5.55;;;;;;;17.92;100.00;101117.16;4972494;28;20038;-68
2021/08/30 00:26:28;;;;;;;12.23;5.90;;;;;;;17.98;100.00;101112.84;4973795;28;20410;-68
2021/08/30 00:28:53;;;;;;;12.02;6.13;;;;;;;17.98;100.00;101120.28;4969351;28;20035;-67
2021/08/30 00:31:19;;;;;;;15.02;7.15;;;;;;;17.90;100.00;101113.28;4971912;28;20050;-67
2021/08/30 00:33:45;;;;;;;14.65;6.20;;;;;;;17.94;100.00;101116.78;4956132;28;20118;-67
2021/08/30 00:36:10;;;;;;;13.85;5.97;;;;;;;17.99;100.00;101128.06;4968957;28;22157;-68
2021/08/30 00:38:36;;;;;;;15.80;6.50;;;;;;;17.97;100.00;101116.78;4968935;28;20461;-68
2021/08/30 00:41:03;;;;;;;15.52;6.10;;;;;;;17.94;100.00;101120.25;4972546;28;20047;-67
2021/08/30 00:43:28;;;;;;;16.55;6.85;;;;;;;17.91;100.00;101121.06;4972479;28;20035;-68
2021/08/30 00:45:54;;;;;;;16.13;6.55;;;;;;;17.85;100.00;101122.63;4950928;28;20808;-67
2021/08/30 00:48:19;;;;;;;15.15;6.10;;;;;;;17.84;100.00;101123.03;4973174;28;20711;-68
2021/08/30 00:50:45;;;;;;;12.35;5.75;;;;;;;17.82;100.00;101125.38;4972086;28;20114;-68
2021/08/30 00:53:11;;;;;;;12.85;5.97;;;;;;;17.84;100.00;101126.53;4972503;28;20049;-68
2021/08/30 00:55:36;;;;;;;15.60;6.13;;;;;;;17.85;100.00;101122.63;4963985;28;20069;-68
2021/08/30 00:58:03;;;;;;;13.93;6.47;;;;;;;17.87;100.00;101130.41;4972565;28;20077;-68
2021/08/30 01:00:29;;;;;;;13.98;6.15;;;;;;;17.88;100.00;101127.31;4961400;28;20031;-68
2021/08/30 01:02:54;;;;;;;15.55;6.45;;;;;;;17.91;100.00;101131.97;4971663;28;20429;-68
2021/08/30 01:05:20;;;;;;;17.98;6.25;;;;;;;17.95;100.00;101143.66;4972407;28;20038;-67
2021/08/30 01:08:17;;;;;;;14.60;6.78;;;;;;;17.94;100.00;101133.91;4971856;28;20031;-67
2021/08/30 01:10:56;;;;;;;16.83;6.65;;;;;;;17.96;100.00;101136.25;4957372;28;20074;-68
2021/08/30 01:13:32;;;;;;;12.70;5.95;;;;;;;17.99;100.00;101132.72;4955322;28;20046;-68
2021/08/30 01:16:01;;;;;;;13.13;6.03;;;;;;;17.95;100.00;101137.41;4971997;28;20094;-67
2021/08/30 01:18:30;;;;;;;14.15;6.07;;;;;;;17.97;100.00;101137.78;4955615;28;20098;-69
2021/08/30 01:21:01;;;;;;;13.55;5.63;;;;;;;17.99;100.00;101138.97;4954564;28;20415;-67
2021/08/30 01:23:28;;;;;;;13.90;6.18;;;;;;;17.93;100.00;101135.06;4972593;28;20035;-67
2021/08/30 01:25:58;;;;;;;14.07;5.70;;;;;;;17.97;100.00;101141.31;4968400;28;20035;-67
2021/08/30 01:28:29;;;;;;;14.73;5.88;;;;;;;18.01;100.00;101146.75;4971050;28;20039;-68
2021/08/30 01:30:57;;;;;;;12.15;5.43;;;;;;;17.97;100.00;101135.84;4954954;28;20049;-67
2021/08/30 01:33:24;;;;;;;12.68;6.43;;;;;;;17.99;100.00;101138.19;4971137;28;20031;-68
2021/08/30 01:35:50;;;;;;;14.73;6.15;;;;;;;17.99;100.00;101130.78;4971791;28;20510;-68
2021/08/30 01:38:16;;;;;;;13.02;6.57;;;;;;;17.99;100.00;101144.41;4972708;28;20072;-68
2021/08/30 01:40:43;;;;;;;13.45;6.47;;;;;;;17.98;100.00;101142.09;4964026;28;20038;-68
2021/08/30 01:43:09;;;;;;;15.18;5.95;;;;;;;17.90;100.00;101141.28;4970289;28;20034;-68
2021/08/30 01:45:36;;;;;;;12.68;5.70;;;;;;;17.86;100.00;101145.22;4971341;28;20038;-67
2021/08/30 01:48:04;;;;;;;13.02;6.15;;;;;;;17.85;100.00;101143.66;4954556;28;20046;-68
2021/08/30 01:50:31;;;;;;;13.45;6.15;;;;;;;17.84;100.00;101137.44;4971554;28;20026;-68
2021/08/30 01:52:59;;;;;;;11.88;6.00;;;;;;;17.84;100.00;101147.56;4970755;28;20411;-68
2021/08/30 02:00:48;;;;;;;14.13;6.55;;;;;;;17.88;100.00;101138.22;4953345;28;20050;-68
2021/08/30 02:03:15;;;;;;;16.38;6.15;;;;;;;17.91;100.00;101136.63;4970201;28;20054;-67
2021/08/30 02:05:47;;;;;;;14.93;6.55;;;;;;;18.00;100.00;101137.03;4965484;28;20042;-68
2021/08/30 02:08:15;;;;;;;;;;;;;;;17.80;100.00;101131.22;4971125;28;20031;-69
2021/08/30 02:10:45;;;;;;;13.07;5.75;;;;;;;17.85;100.00;101133.53;4971067;28;19981;-68
2021/08/30 02:13:13;;;;;;;12.32;5.93;;;;;;;17.85;100.00;101132.75;4959759;28;20050;-69
2021/08/30 02:15:39;;;;;;;12.35;5.85;;;;;;;17.90;100.00;101133.13;4967072;28;20027;-67
2021/08/30 02:18:35;;;;;;;12.18;6.70;;;;;;;17.94;100.00;101139.34;4971414;28;20034;-68
2021/08/30 02:21:20;;;;;;;12.13;5.70;;;;;;;17.86;100.00;101137.03;4966663;28;20792;-68
2021/08/30 02:24:24;;;;;;;14.57;5.45;;;;;;;17.82;100.00;101137.06;4948602;28;20062;-67
2021/08/30 02:27:14;;;;;;;11.80;5.82;;;;;;;17.81;100.00;101137.41;4969460;28;20045;-68
2021/08/30 02:29:49;;;;;;;13.93;5.78;;;;;;;17.80;100.00;101138.59;4964761;28;20099;-69
2021/08/30 02:32:16;;;;;;;12.77;6.00;;;;;;;17.82;100.00;101134.31;4969252;28;20046;-67
2021/08/30 02:34:45;;;;;;;12.85;6.28;;;;;;;17.87;100.00;101128.47;4971407;28;20415;-68
2021/08/30 02:37:12;;;;;;;11.40;5.65;;;;;;;17.90;100.00;101135.09;4970992;28;20061;-68
2021/08/30 02:39:39;;;;;;;12.57;6.00;;;;;;;17.87;100.00;101136.66;4967667;28;20396;-68
2021/08/30 02:42:06;;;;;;;12.68;5.93;;;;;;;17.84;100.00;101128.47;4953621;28;20066;-67
2021/08/30 02:44:33;;;;;;;13.38;5.57;;;;;;;17.83;100.00;101138.59;4971032;28;20035;-67
2021/08/30 02:47:00;;;;;;;14.23;6.32;;;;;;;17.82;100.00;101136.25;4968300;28;20400;-68
2021/08/30 02:49:27;;;;;;;12.20;5.78;;;;;;;17.85;100.00;101136.25;4968950;28;20495;-68
2021/08/30 02:51:54;;;;;;;14.10;5.97;;;;;;;17.83;100.00;101127.69;4970102;28;20053;-67
2021/08/30 02:54:22;;;;;;;11.88;5.60;;;;;;;17.80;100.00;101133.94;4970622;28;20503;-68
2021/08/30 02:56:48;;;;;;;10.65;5.30;;;;;;;17.77;100.00;101118.34;4953270;28;20058;-68
2021/08/30 02:59:15;;;;;;;13.93;6.10;;;;;;;17.77;100.00;101131.97;4950508;28;20038;-68
2021/08/30 03:01:42;;;;;;;15.07;6.25;;;;;;;17.79;100.00;101124.19;4949822;28;20423;-68
2021/08/30 03:04:12;;;;;;;14.15;5.53;;;;;;;17.76;100.00;101126.94;4968849;28;20022;-68
2021/08/30 03:06:39;;;;;;;13.55;5.57;;;;;;;17.71;100.00;101122.66;4966525;28;20110;-68
2021/08/30 03:09:04;;;;;;;14.75;5.68;;;;;;;17.71;100.00;101127.34;4970115;28;20102;-68
2021/08/30 03:11:32;;;;;;;10.63;5.32;;;;;;;17.71;100.00;101139.00;4964322;28;20043;-68
2021/08/30 03:13:59;;;;;;;11.23;5.55;;;;;;;17.72;100.00;101124.22;4951952;28;20122;-68
2021/08/30 03:16:27;;;;;;;11.25;5.60;;;;;;;17.72;100.00;101129.66;4970676;28;20034;-68
2021/08/30 03:18:54;;;;;;;12.40;5.70;;;;;;;17.74;100.00;101132.78;4970934;28;20406;-68
2021/08/30 03:21:20;;;;;;;12.77;6.03;;;;;;;17.73;100.00;101131.22;4968909;28;20508;-68
2021/08/30 03:23:47;;;;;;;13.23;5.70;;;;;;;17.75;100.00;101130.84;4965490;28;20033;-68
2021/08/30 03:26:13;;;;;;;10.90;5.72;;;;;;;17.72;100.00;101128.88;4974042;28;20119;-68
2021/08/30 03:28:41;;;;;;;12.45;5.88;;;;;;;17.72;100.00;101126.16;4957500;28;20178;-68
2021/08/30 03:31:07;;;;;;;11.98;5.38;;;;;;;17.75;100.00;101128.88;4965467;28;20409;-69
2021/08/30 03:33:34;;;;;;;13.88;5.28;;;;;;;17.70;100.00;101126.56;4958361;28;20663;-68
2021/08/30 03:36:01;;;;;;;12.52;5.70;;;;;;;17.69;100.00;101135.13;4960015;28;21326;-68
2021/08/30 03:38:28;;;;;;;11.60;5.20;;;;;;;17.64;100.00;101136.28;4957746;28;20031;-68
2021/08/30 03:40:54;;;;;;;10.25;5.78;;;;;;;17.63;100.00;101139.41;4951314;28;20034;-67
2021/08/30 03:43:20;;;;;;;11.02;5.22;;;;;;;17.58;100.00;101129.66;4940427;28;20093;-68
2021/08/30 03:45:46;;;;;;;13.23;5.85;;;;;;;17.53;100.00;101137.47;4964417;28;20093;-67
2021/08/30 03:48:12;;;;;;;12.25;5.95;;;;;;;17.53;100.00;101132.00;4973163;28;20034;-68
2021/08/30 03:50:40;;;;;;;13.45;5.57;;;;;;;17.50;100.00;101138.25;4973563;28;20388;-68
2021/08/30 03:53:06;;;;;;;11.18;5.35;;;;;;;17.50;100.00;101144.44;4973298;28;20656;-69
2021/08/30 03:55:32;;;;;;;10.00;5.43;;;;;;;17.47;100.00;101128.88;4957117;28;20031;-68
2021/08/30 03:57:59;;;;;;;11.48;5.50;;;;;;;17.48;100.00;101133.16;4964505;28;20518;-68
2021/08/30 04:00:26;;;;;;;12.35;5.68;;;;;;;17.45;100.00;101130.41;4960101;28;20037;-67
2021/08/30 04:02:52;;;;;;;10.20;5.63;;;;;;;17.44;100.00;101137.06;4972140;28;20050;-68
2021/08/30 04:05:23;;;;;;;12.00;5.68;;;;;;;17.42;100.00;101137.41;4951361;28;20042;-67
2021/08/30 04:07:51;;;;;;;11.25;5.80;;;;;;;17.40;100.00;101126.13;4963134;28;20042;-67
2021/08/30 04:10:17;;;;;;;11.10;5.57;;;;;;;17.45;100.00;101141.31;4973390;28;20507;-67
2021/08/30 04:12:42;;;;;;;10.77;5.38;;;;;;;17.41;100.00;101141.31;4972199;28;20183;-66
2021/08/30 04:15:08;;;;;;;12.82;5.93;;;;;;;17.46;100.00;101137.44;4966455;28;20034;-68
2021/08/30 04:17:34;;;;;;;14.20;6.03;;;;;;;17.46;100.00;101132.00;4972629;28;20027;-68
2021/08/30 04:19:59;;;;;;;11.00;5.40;;;;;;;17.46;100.00;101132.75;4973675;28;20038;-67
2021/08/30 04:22:25;;;;;;;12.50;5.45;;;;;;;17.46;100.00;101142.88;4962416;28;20043;-67
2021/08/30 04:24:50;;;;;;;13.13;5.88;;;;;;;17.47;100.00;101145.22;4979382;22;20018;-66
2021/08/30 04:27:15;;;;;;;12.15;5.25;;;;;;;17.56;100.00;101142.13;4961333;28;20486;-69
2021/08/30 04:29:43;;;;;;;12.18;5.82;;;;;;;17.52;100.00;101158.47;4956523;28;20039;-69
2021/08/30 04:32:10;;;;;;;15.90;5.95;;;;;;;17.54;100.00;101152.63;4964242;28;20587;-69
2021/08/30 04:34:37;;;;;;;12.70;5.63;;;;;;;17.54;100.00;101158.84;4966526;28;20049;-70
2021/08/30 04:37:03;;;;;;;10.40;5.40;;;;;;;17.63;100.00;101167.44;4971779;28;20549;-70
2021/08/30 04:39:28;;;;;;;12.02;5.93;;;;;;;17.61;100.00;101155.34;4958076;28;20086;-70
2021/08/30 04:41:53;;;;;;;12.07;6.30;;;;;;;17.62;100.00;101160.41;4958093;28;20668;-70
2021/08/30 04:44:19;;;;;;;12.50;5.38;;;;;;;17.68;100.00;101161.59;4958664;28;20883;-70
2021/08/30 04:46:45;;;;;;;15.23;6.00;;;;;;;17.67;100.00;101167.44;4967088;28;20042;-70
2021/08/30 04:49:10;;;;;;;14.13;6.47;;;;;;;17.70;100.00;101164.69;4952249;28;20023;-70
2021/08/30 04:51:36;;;;;;;16.67;5.47;;;;;;;17.73;100.00;101165.88;4968571;28;20159;-69
2021/08/30 04:54:01;;;;;;;11.73;6.22;;;;;;;17.71;100.00;101160.78;4961938;28;20041;-69
2021/08/30 04:56:27;;;;;;;13.27;5.43;;;;;;;17.72;100.00;101167.81;4966868;28;20039;-69
2021/08/30 04:58:53;;;;;;;11.65;5.30;;;;;;;17.74;100.00;101164.69;4950664;28;20459;-72
2021/08/30 05:01:19;;;;;;;12.25;6.05;;;;;;;17.70;100.00;101166.63;4958539;28;20074;-68
2021/08/30 05:03:44;;;;;;;12.10;5.55;;;;;;;17.69;100.00;101170.53;4967438;28;20105;-67
2021/08/30 05:06:10;;;;;;;15.00;6.35;;;;;;;17.70;100.00;101175.59;4966751;28;20035;-73
2021/08/30 05:08:35;;;;;;;11.10;5.40;;;;;;;17.70;100.00;101169.34;4967455;28;20035;-68
2021/08/30 05:11:01;;;;;;;11.43;5.75;;;;;;;17.73;100.00;101174.03;4965281;28;20035;-69
2021/08/30 05:13:27;;;;;;;15.00;5.90;;;;;;;17.73;100.00;101166.63;4962836;28;20612;-71
2021/08/30 05:15:52;;;;;;;14.27;5.68;;;;;;;17.75;100.00;101177.91;4971045;28;20086;-72
2021/08/30 05:18:18;;;;;;;12.82;5.68;;;;;;;17.74;100.00;101176.38;4954261;28;20043;-71
2021/08/30 05:20:49;;;;;;;10.82;5.70;;;;;;;17.72;100.00;101181.44;4969131;28;20110;-71
2021/08/30 05:23:14;;;;;;;13.23;5.60;;;;;;;17.74;100.00;101175.59;4964254;28;20034;-71
2021/08/30 05:25:40;;;;;;;12.30;5.63;;;;;;;17.77;100.00;101189.22;4965338;28;20027;-71
2021/08/30 05:28:05;;;;;;;13.07;5.72;;;;;;;17.78;100.00;101193.50;4964786;28;20042;-71
2021/08/30 05:30:30;;;;;;;13.30;6.00;;;;;;;17.81;100.00;101181.81;4964962;28;20062;-71
2021/08/30 05:32:56;;;;;;;12.05;5.32;;;;;;;17.87;100.00;101191.16;4965865;28;20032;-68
2021/08/30 05:35:21;;;;;;;14.75;5.90;;;;;;;17.86;100.00;101183.38;4961557;28;20538;-71
2021/08/30 05:37:47;;;;;;;18.38;6.70;;;;;;;17.85;100.00;101188.03;4965194;28;20035;-71
2021/08/30 05:40:33;;;;;;;11.93;5.68;;;;;;;17.88;100.00;101181.03;4966424;28;20030;-72
2021/08/30 05:43:00;;;;;;;11.20;5.43;;;;;;;17.90;100.00;101181.44;4888665;29;20145;-71
2021/08/30 05:45:25;;;;;;;12.10;5.53;;;;;;;17.90;100.00;101179.44;4892376;29;20123;-71
2021/08/30 05:47:51;;;;;;;13.13;6.00;;;;;;;17.92;100.00;101179.84;4890829;29;22395;-71
2021/08/30 05:50:16;;;;;;;11.68;5.35;;;;;;;17.97;100.00;101187.63;4883831;29;20076;-70
2021/08/30 05:52:42;;;;;;;9.95;5.05;;;;;;;18.00;100.00;101191.53;4891681;29;20459;-71
2021/08/30 05:55:08;;;;;;;11.65;5.32;;;;;;;18.03;100.00;101188.03;4893799;29;20106;-71
2021/08/30 05:57:33;;;;;;;12.55;5.57;;;;;;;18.02;100.00;101189.97;4891628;29;20163;-71
2021/08/30 05:59:59;;;;;;;11.48;5.50;;;;;;;18.03;100.00;101194.25;4888906;29;20052;-70
2021/08/30 06:02:24;;;;;;;12.23;5.70;;;;;;;18.07;100.00;101190.75;4894672;29;20055;-72
2021/08/30 06:04:49;;;;;;;11.38;4.90;;;;;;;18.09;100.00;101193.84;4894240;29;20044;-72
2021/08/30 06:07:15;;;;;;;10.80;4.80;;;;;;;18.09;100.00;101191.13;4874385;29;20131;-71
2021/08/30 06:09:41;;;;;;;10.02;5.28;;;;;;;18.07;100.00;101204.38;4890094;29;20040;-71
2021/08/30 06:12:06;;;;;;;15.30;5.45;;;;;;;18.12;100.00;101193.09;4890931;29;20044;-71
2021/08/30 06:14:32;;;;;;;10.50;5.13;;;;;;;18.15;100.00;101190.34;4893405;29;20094;-72
2021/08/30 06:16:57;;;;;;;9.98;4.95;;;;;;;18.15;100.00;101195.00;4871724;29;20025;-70
2021/08/30 06:19:23;;;;;;;11.23;4.95;;;;;;;18.12;100.00;101193.09;4907732;28;20534;-72
2021/08/30 06:21:48;;;;;;;10.25;5.05;;;;;;;18.13;100.00;101195.41;4965591;28;20062;-69
2021/08/30 06:24:14;;;;;;;9.65;4.68;;;;;;;18.22;100.00;101195.00;4961833;28;20035;-71
2021/08/30 06:26:39;;;;;;;9.70;4.90;;;;;;;18.23;100.00;101194.63;4955724;28;20038;-71
2021/08/30 06:29:06;;;;;;;10.43;5.10;;;;;;;18.24;100.00;101187.19;4959366;28;20558;-71
2021/08/30 06:31:31;;;;;;;11.65;5.18;;;;;;;18.26;100.00;101204.72;4957156;28;20499;-71
2021/08/30 06:33:57;;;;;;;11.35;5.25;;;;;;;18.25;100.00;101199.66;4958303;28;20050;-71
2021/08/30 06:36:23;;;;;;;8.90;4.70;;;;;;;18.25;100.00;101203.19;4962712;28;20061;-70
2021/08/30 06:38:48;;;;;;;9.60;4.50;;;;;;;18.36;100.00;101197.69;4958916;28;20031;-70
2021/08/30 06:41:14;;;;;;;8.95;4.47;;;;;;;18.37;100.00;101208.19;4961706;28;20031;-71
2021/08/30 06:43:40;;;;;;;9.15;4.90;;;;;;;18.44;100.00;101210.16;4959853;28;20113;-71
2021/08/30 06:46:05;;;;;;;9.63;5.10;;;;;;;18.44;100.00;101208.22;4971356;28;20038;-71
2021/08/30 06:48:31;;;;;;;10.85;4.70;;;;;;;18.51;100.00;101210.13;4971759;28;20110;-70
2021/08/30 06:50:56;;;;;;;11.02;5.10;;;;;;;18.52;100.00;101214.44;4966272;28;20026;-71
2021/08/30 06:53:22;;;;;;;9.90;4.72;;;;;;;18.59;100.00;101215.19;4970860;28;20058;-70
2021/08/30 06:55:47;;;;;;;10.25;5.00;;;;;;;18.65;100.00;101213.63;4967254;28;20088;-70
2021/08/30 06:58:13;;;;;;;13.13;5.40;;;;;;;18.67;100.00;101205.03;4973419;28;20030;-70
2021/08/30 07:00:38;;;;;;;9.13;5.07;;;;;;;18.80;100.00;101203.41;4971749;28;20039;-71
2021/08/30 07:03:04;;;;;;;9.27;4.60;;;;;;;18.98;100.00;101208.78;4970993;28;20043;-72
2021/08/30 07:05:29;;;;;;;10.07;4.60;;;;;;;19.15;100.00;101205.19;4973749;28;20084;-68
2021/08/30 07:07:55;;;;;;;9.98;4.88;;;;;;;19.21;100.00;101211.78;4971484;28;20157;-68
2021/08/30 07:10:21;;;;;;;7.70;4.75;;;;;;;19.30;100.00;101203.94;4971793;28;20035;-69
2021/08/30 07:12:46;;;;;;;8.75;3.95;;;;;;;19.34;100.00;101205.47;4968752;28;20039;-69
2021/08/30 07:15:12;;;;;;;8.75;4.47;;;;;;;19.32;100.00;101210.56;4958726;28;20042;-69
2021/08/30 07:17:37;;;;;;;7.30;4.07;;;;;;;19.23;100.00;101220.34;4976096;28;20138;-70
2021/08/30 07:20:03;;;;;;;6.53;3.42;;;;;;;19.16;100.00;101214.94;4975548;28;20046;-69
2021/08/30 07:22:29;;;;;;;5.65;3.63;;;;;;;19.10;100.00;101222.78;4972195;28;20046;-69
2021/08/30 07:24:54;;;;;;;8.13;3.85;;;;;;;19.10;100.00;101224.72;4969969;28;20045;-66
2021/08/30 07:27:20;;;;;;;6.93;3.60;;;;;;;19.07;100.00;101222.78;4972846;28;20045;-71
2021/08/30 07:29:45;;;;;;;8.27;3.95;;;;;;;19.05;100.00;101225.91;4958113;28;20094;-71
2021/08/30 07:32:11;;;;;;;7.50;3.95;;;;;;;19.08;100.00;101224.34;4963830;28;20026;-71
2021/08/30 07:34:36;;;;;;;7.32;4.22;;;;;;;19.10;100.00;101230.19;4972760;28;20094;-71
2021/08/30 07:37:02;;;;;;;6.88;3.90;;;;;;;19.07;100.00;101226.28;4962689;28;20109;-70
2021/08/30 07:39:28;;;;;;;7.53;3.97;;;;;;;19.14;100.00;101225.47;4956518;28;20042;-71
2021/08/30 07:41:53;;;;;;;5.90;3.53;;;;;;;19.20;100.00;101223.88;4945376;28;20023;-71
2021/08/30 07:44:20;;;;;;;7.85;3.92;;;;;;;19.24;100.00;101230.88;4961790;28;20488;-71
2021/08/30 07:46:45;;;;;;;5.53;3.50;;;;;;;19.28;100.00;101233.59;4957563;28;20518;-70
2021/08/30 07:49:11;;;;;;;6.75;3.78;;;;;;;19.33;100.00;101233.19;4956105;28;20028;-71
2021/08/30 07:51:41;;;;;;;6.68;3.58;;;;;;;19.35;100.00;101230.84;4964498;28;20042;-66
2021/08/30 07:54:07;;;;;;;7.07;3.80;;;;;;;19.38;100.00;101233.56;4955617;28;20031;-69
2021/08/30 07:56:38;;;;;;;8.82;3.28;;;;;;;19.40;100.00;101227.69;4963582;28;20055;-69
2021/08/30 07:59:04;;;;;;;6.63;3.37;;;;;;;19.39;100.00;101220.69;4963149;28;20395;-68
2021/08/30 08:01:30;;;;;;;6.03;3.28;;;;;;;19.39;100.00;101223.41;4956076;28;20019;-69
2021/08/30 08:03:55;;;;;;;5.93;3.42;;;;;;;19.46;100.00;101223.34;4971418;28;20038;-69
2021/08/30 08:06:20;;;;;;;6.40;4.00;;;;;;;19.41;100.00;101218.31;4946170;28;20484;-69
2021/08/30 08:08:46;;;;;;;7.95;4.10;;;;;;;19.39;100.00;101232.38;4956455;28;20123;-68
2021/08/30 08:11:12;;;;;;;7.53;3.13;;;;;;;19.38;100.00;101230.81;4957988;28;20034;-69
2021/08/30 08:13:38;;;;;;;5.43;3.30;;;;;;;19.32;100.00;101237.88;4955323;28;20209;-70
2021/08/30 08:16:03;;;;;;;8.20;3.25;;;;;;;19.32;100.00;101237.88;4959566;28;20656;-69
2021/08/30 08:18:30;;;;;;;6.65;3.45;;;;;;;19.31;100.00;101252.69;4957716;28;20053;-70
2021/08/30 08:20:56;;;;;;;6.63;3.58;;;;;;;19.31;100.00;101254.66;4962259;28;20034;-70
2021/08/30 08:23:22;;;;;;;4.90;2.55;;;;;;;19.29;100.00;101249.59;4969016;28;20070;-70
2021/08/30 08:25:47;;;;;;;6.88;3.28;;;;;;;19.31;100.00;101260.09;4973457;28;20407;-70
2021/08/30 08:28:13;;;;;;;5.97;3.33;;;;;;;19.35;100.00;101253.50;4973731;28;20052;-69
2021/08/30 08:30:39;;;;;;;4.90;3.25;;;;;;;19.38;100.00;101255.41;4967523;28;20066;-70
2021/08/30 08:33:04;;;;;;;6.28;3.30;;;;;;;19.38;100.00;101258.13;4973019;28;20043;-70
2021/08/30 08:35:30;;;;;;;6.35;3.10;;;;;;;19.38;100.00;101257.34;4973447;28;20038;-70
2021/08/30 08:37:56;;;;;;;5.63;2.92;;;;;;;19.40;100.00;101246.81;4966624;28;20046;-66
2021/08/30 08:40:21;;;;;;;6.13;3.70;;;;;;;19.47;100.00;101247.53;4943999;28;20027;-69
2021/08/30 08:42:47;;;;;;;6.65;3.60;;;;;;;19.49;100.00;101250.66;4956687;28;20448;-69
2021/08/30 08:45:15;;;;;;;6.15;3.47;;;;;;;19.52;100.00;101252.59;4959045;28;20107;-70
2021/08/30 08:47:41;;;;;;;5.20;2.90;;;;;;;19.56;100.00;101263.50;4963034;28;20062;-69
2021/08/30 08:50:09;;;;;;;5.22;3.20;;;;;;;19.52;100.00;101249.06;4954811;28;20126;-70
2021/08/30 08:52:36;;;;;;;5.22;2.92;;;;;;;19.56;99.24;101260.75;4956340;28;20070;-70
2021/08/30 08:55:02;;;;;;;4.30;2.72;;;;;;;19.56;99.23;101266.22;4963683;28;20455;-70
2021/08/30 08:57:28;;;;;;;4.07;2.65;;;;;;;19.48;100.00;101265.50;4955841;28;20858;-70
2021/08/30 08:59:59;;;;;;;4.97;3.10;;;;;;;19.52;100.00;101262.75;4962252;28;20130;-69
2021/08/30 09:02:29;;;;;;;4.68;3.08;;;;;;;19.49;100.00;101267.03;4963463;28;20484;-69
2021/08/30 09:04:57;;;;;;;6.82;3.22;;;;;;;19.47;100.00;101268.63;4965443;28;20102;-69
2021/08/30 09:07:35;;;;;;;5.65;3.00;;;;;;;19.50;100.00;101265.88;4956878;28;20039;-71
2021/08/30 09:10:01;;;;;;;4.47;2.75;;;;;;;19.48;100.00;101273.69;4962766;28;20071;-70
2021/08/30 09:12:27;;;;;;;6.20;3.15;;;;;;;19.50;100.00;101268.63;4961188;28;20034;-70
2021/08/30 09:14:52;;;;;;;6.05;3.17;;;;;;;19.47;99.24;101280.31;4961886;28;20082;-70
2021/08/30 09:17:18;;;;;;;6.28;3.22;;;;;;;19.47;99.59;101272.13;4957564;28;20109;-70
2021/08/30 09:19:44;;;;;;;6.45;3.10;;;;;;;19.42;98.83;101277.25;4960319;28;20062;-70
2021/08/30 09:22:11;;;;;;;5.93;2.90;;;;;;;19.38;99.36;101281.94;4958763;28;20031;-71
2021/08/30 09:24:37;;;;;;;5.90;3.20;;;;;;;19.39;98.95;101284.31;4963232;28;20066;-70
2021/08/30 09:27:03;;;;;;;4.70;2.70;;;;;;;19.38;99.62;101282.72;4968637;28;20106;-70
2021/08/30 09:29:32;;;;;;;4.43;2.47;;;;;;;19.44;99.36;101270.22;4971118;28;20106;-69
2021/08/30 09:32:08;;;;;;;4.82;2.78;;;;;;;19.49;98.74;101269.78;4961930;28;20034;-69
2021/08/30 09:34:37;;;;;;;4.85;2.90;;;;;;;19.55;99.25;101279.13;4956688;28;20031;-69
2021/08/30 09:37:05;;;;;;;5.28;2.72;;;;;;;19.53;100.00;101280.72;4955865;28;20075;-69
2021/08/30 09:39:32;;;;;;;5.28;2.83;;;;;;;19.52;100.00;101281.88;4956071;28;20041;-69
2021/08/30 09:42:00;;;;;;;5.53;3.13;;;;;;;19.48;99.60;101284.63;4967297;28;20042;-69
2021/08/30 09:44:29;;;;;;;5.38;3.00;;;;;;;19.47;99.25;101288.53;4966097;28;20070;-69
2021/08/30 09:46:55;;;;;;;4.68;2.55;;;;;;;19.46;99.38;101283.47;4967744;28;20043;-69
2021/08/30 09:49:27;;;;;;;6.53;2.63;;;;;;;19.44;100.00;101280.34;4967743;28;20038;-69
2021/08/30 09:51:53;;;;;;;4.72;2.70;;;;;;;19.41;100.00;101281.94;4968427;28;20357;-69
2021/08/30 09:54:20;;;;;;;5.53;2.58;;;;;;;19.49;100.00;101275.25;4963229;28;20042;-69
2021/08/30 09:56:47;;;;;;;5.35;2.92;;;;;;;19.60;100.00;101278.69;4970956;28;20089;-69
2021/08/30 09:59:13;;;;;;;5.20;3.10;;;;;;;19.62;99.90;101275.56;4966764;28;20118;-69
2021/08/30 10:01:41;;;;;;;4.90;2.80;;;;;;;19.57;99.27;101271.28;4970108;28;20448;-69
2021/08/30 10:04:08;;;;;;;4.28;2.80;;;;;;;19.65;98.88;101281.00;4971749;28;20034;-69
2021/08/30 10:06:39;;;;;;;5.07;2.92;;;;;;;19.67;98.89;101284.13;4965318;28;20058;-69
2021/08/30 10:09:14;;;;;;;4.18;2.83;;;;;;;19.71;98.15;101273.94;4967033;28;20069;-69
2021/08/30 10:11:40;;;;;;;4.00;2.72;;;;;;;19.64;98.53;101281.41;4965173;28;20035;-69
2021/08/30 10:14:18;;;;;;;7.60;2.90;;;;;;;19.68;97.64;101273.97;4970282;28;20109;-69
2021/08/30 10:16:45;;;;;;;4.97;2.65;;;;;;;19.65;98.21;101281.00;4971734;28;20495;-69
2021/08/30 10:19:11;;;;;;;3.83;2.60;;;;;;;19.58;99.11;101277.53;4953879;28;20060;-69
2021/08/30 10:21:44;;;;;;;3.53;2.28;;;;;;;19.60;98.20;101278.69;4954409;28;20058;-69
2021/08/30 10:24:15;;;;;;;6.05;3.00;;;;;;;19.70;99.36;101282.53;4966403;28;20424;-69
2021/08/30 10:26:43;;;;;;;5.82;2.83;;;;;;;19.70;100.00;101277.84;4967209;28;20094;-69
2021/08/30 10:29:11;;;;;;;4.65;2.40;;;;;;;19.76;99.12;101272.75;4970550;28;20026;-69
2021/08/30 10:31:51;;;;;;;5.05;2.80;;;;;;;19.86;99.07;101277.34;4947845;28;20058;-69
2021/08/30 10:34:44;;;;;;;4.50;2.58;;;;;;;19.88;97.95;101277.72;4968805;28;20491;-69
2021/08/30 10:37:18;;;;;;;4.35;2.70;;;;;;;19.98;97.24;101274.13;4967135;28;20170;-69
2021/08/30 10:39:47;;;;;;;5.05;2.85;;;;;;;20.09;98.24;101269.31;4963838;28;20038;-69
2021/08/30 10:42:14;;;;;;;4.10;2.47;;;;;;;20.12;96.81;101275.97;4988947;23;20038;-67
2021/08/30 10:44:54;;;;;;;4.25;2.38;;;;;;;20.16;96.92;101276.72;4984761;28;20117;-67
2021/08/30 10:47:24;;;;;;;4.13;2.20;;;;;;;20.21;97.82;101270.84;4983834;28;20450;-67
2021/08/30 10:49:51;;;;;;;4.72;2.80;;;;;;;20.33;96.38;101271.09;4981884;28;20117;-67
2021/08/30 10:52:18;;;;;;;6.25;2.28;;;;;;;20.42;96.21;101278.84;4957862;28;20063;-68
2021/08/30 10:54:55;;;;;;;4.63;2.63;;;;;;;20.45;94.29;101283.50;4969961;28;20387;-67
2021/08/30 10:57:35;;;;;;;5.65;2.70;;;;;;;20.43;94.31;101278.44;4958936;28;20050;-68
2021/08/30 11:00:01;;;;;;;7.18;2.53;;;;;;;20.42;93.80;101273.38;4970242;28;20038;-68
2021/08/30 11:02:41;;;;;;;5.28;2.53;;;;;;;20.38;92.91;101281.59;4963826;28;20510;-68
2021/08/30 11:05:07;;;;;;;3.90;2.15;;;;;;;20.38;93.13;101281.59;4970667;28;20070;-67
2021/08/30 11:07:34;;;;;;;4.95;2.28;;;;;;;20.38;92.96;101283.56;4971025;28;20039;-68
2021/08/30 11:10:00;;;;;;;5.80;2.65;;;;;;;20.34;92.79;101280.09;4964803;28;20085;-66
2021/08/30 11:12:26;;;;;;;3.58;2.30;;;;;;;20.31;92.38;101289.09;4963253;28;20043;-67
2021/08/30 11:14:56;;;;;;;4.50;2.50;;;;;;;20.25;92.34;101285.25;4970021;28;20034;-67
2021/08/30 11:17:29;;;;;;;3.42;2.42;;;;;;;20.18;91.73;101290.75;4965218;28;20042;-68
2021/08/30 11:19:56;;;;;;;4.28;2.17;;;;;;;20.00;92.33;101284.66;4949933;28;20439;-67
2021/08/30 11:22:22;;;;;;;4.60;2.45;;;;;;;20.06;92.39;101292.03;4966696;28;20402;-68